Weather History for KBIX - January, 2012

Change the Weather History Date:

Saturday, January 21, 2012

  Actual Average Record
Temperature  
Mean Temperature 66 °F -  
Max Temperature 71 °F 58 °F 76 °F (1993)
Min Temperature 62 °F 41 °F 21 °F (1984)
Cooling Degree Days 2    
Growing Degree Days 16 (Base 50)    
Moisture  
Dew Point 65 °F    
Average Humidity 100    
Maximum Humidity 100    
Minimum Humidity 88    
Precipitation  
Precipitation 0.00 in - - ()
Sea Level Pressure  
Sea Level Pressure 30.00 in    
Wind  
Wind Speed 9 mph (SW)    
Max Wind Speed 14 mph    
Max Gust Speed -    
Visibility 5 miles    
Events Fog    
Averages and records for this station are not official NWS values.
T = Trace of Precipitation, MM = Missing Value Source: NWS Daily Summary

Daily Weather History Graph

Daily Weather History Graph

Search for Another Location

Airport or City:

Trip Planner

Search our weather history database for the weather conditions in past years. The results will help you decide how hot, cold, wet, or windy it might be!

Date:

Astronomy

Jan. 21, 2012 Rise Set
Actual Time 6:51 AM CST 5:22 PM CST
Civil Twilight 6:26 AM CST 5:47 PM CST
Nautical Twilight 5:56 AM CST 6:17 PM CST
Astronomical Twilight 5:28 AM CST 6:45 PM CST
Moon 5:19 AM CST (1/21) 4:00 PM CST (1/21)
Length of Visible Light 11h 21m
Length of Day
10h 30m
Waning Crescent, 3% of the Moon is Illuminated
Jan 21
Waning Crescent
Jan 23
New
Jan 30
First Quarter
Feb 7
Full
Feb 14
Last Quarter

Hourly Weather History & Observations

Time (CST) Temp. Dew Point Humidity Pressure Visibility Wind Dir Wind Speed Gust Speed Precip Events Conditions
12:01 AM 62.6 °F 62.6 °F 100% 30.01 in 6.0 mi SSW 4.6 mph - N/A   Overcast
12:29 AM 62.6 °F 62.6 °F 100% 30.01 in 6.0 mi SSW 5.8 mph - N/A   Scattered Clouds
12:30 AM 62.6 °F 62.6 °F 100% 30.01 in 6.0 mi SSW 5.8 mph - N/A   Scattered Clouds
12:55 AM 62.4 °F 62.4 °F 100% 30.02 in 8.0 mi SW 6.9 mph - N/A   Partly Cloudy
1:00 AM 62.6 °F 62.6 °F 100% 30.02 in 9.0 mi SW 6.9 mph - N/A   Partly Cloudy
1:55 AM 62.4 °F 62.4 °F 100% 30.01 in 10.0 mi SW 6.9 mph - N/A   Scattered Clouds
2:02 AM 62.6 °F 62.6 °F 100% 30.01 in 10.0 mi SW 5.8 mph - N/A   Mostly Cloudy
2:45 AM 62.6 °F 62.6 °F 100% 30.00 in 10.0 mi SSW 8.1 mph - N/A   Mostly Cloudy
2:55 AM 63.0 °F 63.0 °F 100% 29.99 in 10.0 mi SSW 9.2 mph - N/A   Mostly Cloudy
3:55 AM 64.0 °F 64.0 °F 100% 29.98 in 10.0 mi SSW 11.5 mph - N/A   Partly Cloudy
4:20 AM 64.4 °F 64.4 °F 100% 29.98 in 10.0 mi SW 10.4 mph - N/A   Mostly Cloudy
4:33 AM 64.4 °F 64.4 °F 100% 29.97 in 10.0 mi SSW 13.8 mph - N/A   Mostly Cloudy
4:42 AM 64.4 °F 64.4 °F 100% 29.98 in 10.0 mi SW 11.5 mph - N/A   Mostly Cloudy
4:51 AM 64.4 °F 64.4 °F 100% 29.97 in 10.0 mi SW 9.2 mph - N/A   Mostly Cloudy
4:53 AM 64.4 °F 64.4 °F 100% 29.97 in 10.0 mi SW 12.7 mph - N/A   Mostly Cloudy
4:55 AM 63.5 °F 63.5 °F 100% 29.97 in 10.0 mi SW 11.5 mph - N/A   Mostly Cloudy
5:01 AM 64.4 °F 64.4 °F 100% 29.97 in 10.0 mi SW 12.7 mph - N/A   Mostly Cloudy
5:02 AM 64.4 °F 64.4 °F 100% 29.98 in 10.0 mi SW 11.5 mph - N/A   Mostly Cloudy
5:03 AM 64.4 °F 64.4 °F 100% 29.97 in 10.0 mi SW 11.5 mph - N/A   Mostly Cloudy
5:05 AM 64.4 °F 64.4 °F 100% 29.97 in 10.0 mi SW 12.7 mph - N/A   Mostly Cloudy
5:08 AM 64.4 °F 64.4 °F 100% 29.97 in 10.0 mi SW 11.5 mph - N/A   Mostly Cloudy
5:09 AM 64.4 °F 64.4 °F 100% 29.97 in 10.0 mi SW 11.5 mph - N/A   Mostly Cloudy
5:11 AM 64.4 °F 64.4 °F 100% 29.97 in 10.0 mi SW 11.5 mph - N/A   Mostly Cloudy
5:12 AM 64.4 °F 64.4 °F 100% 29.97 in 10.0 mi SW 11.5 mph - N/A   Mostly Cloudy
5:16 AM 64.4 °F 64.4 °F 100% 29.99 in 10.0 mi WSW 10.4 mph - N/A   Mostly Cloudy
5:27 AM 64.4 °F 64.4 °F 100% 29.98 in 10.0 mi SW 11.5 mph - N/A   Mostly Cloudy
5:37 AM 64.4 °F 64.4 °F 100% 29.99 in 10.0 mi WSW 8.1 mph - N/A   Overcast
5:55 AM 64.0 °F 64.0 °F 100% 29.99 in 10.0 mi SW 11.5 mph - N/A   Overcast
6:55 AM 63.5 °F 63.5 °F 100% 30.01 in 10.0 mi SW 10.4 mph - N/A   Mostly Cloudy
7:04 AM 64.4 °F 64.4 °F 100% 30.00 in 10.0 mi SW 11.5 mph - N/A   Mostly Cloudy
7:51 AM 64.4 °F 64.4 °F 100% 30.02 in 10.0 mi SW 11.5 mph - N/A   Overcast
7:55 AM 65.1 °F 64.9 °F 99% 30.02 in 10.0 mi SW 10.4 mph - N/A   Overcast
8:12 AM 66.2 °F 66.2 °F 100% 30.02 in 10.0 mi SW 10.4 mph - N/A   Overcast
8:18 AM 66.2 °F 66.2 °F 100% 30.03 in 10.0 mi WSW 9.2 mph - N/A   Overcast
8:28 AM 66.2 °F 66.2 °F 100% 30.03 in 10.0 mi SW 9.2 mph - N/A   Overcast
8:37 AM 66.2 °F 66.2 °F 100% 30.03 in 9.0 mi WSW 10.4 mph - N/A   Overcast
8:55 AM 66.4 °F 66.4 °F 100% 30.03 in 3.0 mi SW 10.4 mph - N/A   Overcast
8:58 AM 66.2 °F 66.2 °F 100% 30.03 in 2.5 mi SW 11.5 mph - N/A   Overcast
9:00 AM 66.2 °F 66.2 °F 100% 30.03 in 2.0 mi SW 10.4 mph - N/A   Overcast
9:02 AM 66.2 °F 66.2 °F 100% 30.03 in 1.8 mi SW 11.5 mph - N/A   Overcast
9:03 AM 66.2 °F 66.2 °F 100% 30.03 in 1.5 mi SW 11.5 mph - N/A   Overcast
9:05 AM 66.2 °F 66.2 °F 100% 30.03 in 1.2 mi SW 11.5 mph - N/A   Overcast
9:08 AM 66.2 °F 66.2 °F 100% 30.03 in 1.0 mi SW 10.4 mph - N/A   Mist
9:12 AM 66.2 °F 66.2 °F 100% 30.04 in 0.8 mi WSW 9.2 mph - N/A   Mist
9:16 AM 66.2 °F 66.2 °F 100% 30.04 in 0.8 mi SW 9.2 mph - N/A   Mist
9:18 AM 66.2 °F 66.2 °F 100% 30.04 in 0.8 mi SW 8.1 mph - N/A   Mist
9:20 AM 66.2 °F 66.2 °F 100% 30.04 in 0.5 mi SW 8.1 mph - N/A Fog Fog
9:28 AM 66.2 °F 66.2 °F 100% 30.04 in 0.5 mi SSW 6.9 mph - N/A Fog Fog
9:29 AM 66.2 °F 66.2 °F 100% 30.04 in 0.8 mi SSW 6.9 mph - N/A   Mist
9:33 AM 66.2 °F 66.2 °F 100% 30.04 in 1.0 mi SSW 8.1 mph - N/A   Mist
9:35 AM 66.2 °F 66.2 °F 100% 30.04 in 1.2 mi SW 9.2 mph - N/A   Overcast
9:37 AM 66.2 °F 66.2 °F 100% 30.04 in 1.5 mi SW 9.2 mph - N/A   Overcast
9:44 AM 64.4 °F 64.4 °F 100% 30.04 in 1.8 mi SW 10.4 mph - N/A   Overcast
9:48 AM 66.2 °F 66.2 °F 100% 30.04 in 2.0 mi SSW 10.4 mph - N/A   Overcast
9:51 AM 64.4 °F 64.4 °F 100% 30.04 in 2.5 mi SW 9.2 mph - N/A   Overcast
9:52 AM 64.4 °F 64.4 °F 100% 30.04 in 2.0 mi SW 9.2 mph - N/A   Overcast
9:55 AM 65.1 °F 65.1 °F 100% 30.04 in 2.0 mi SW 10.4 mph - N/A   Overcast
9:57 AM 64.4 °F 64.4 °F 100% 30.04 in 1.8 mi SW 9.2 mph - N/A   Overcast
9:58 AM 64.4 °F 64.4 °F 100% 30.04 in 1.5 mi SW 9.2 mph - N/A   Overcast
10:00 AM 64.4 °F 64.4 °F 100% 30.04 in 1.2 mi SW 9.2 mph - N/A   Overcast
10:01 AM 64.4 °F 64.4 °F 100% 30.04 in 1.0 mi SW 10.4 mph - N/A   Mist
10:04 AM 64.4 °F 64.4 °F 100% 30.04 in 0.8 mi SW 9.2 mph - N/A   Mist
10:06 AM 64.4 °F 64.4 °F 100% 30.04 in 0.8 mi SW 10.4 mph - N/A   Mist
10:07 AM 64.4 °F 64.4 °F 100% 30.04 in 0.8 mi SW 9.2 mph - N/A   Mist
10:20 AM 66.2 °F 66.2 °F 100% 30.03 in 0.8 mi SW 9.2 mph - N/A   Mist
10:23 AM 66.2 °F 66.2 °F 100% 30.03 in 1.0 mi SW 8.1 mph - N/A   Mist
10:26 AM 66.2 °F 66.2 °F 100% 30.03 in 1.2 mi SW 8.1 mph - N/A   Overcast
10:30 AM 66.2 °F 66.2 °F 100% 30.04 in 1.5 mi SW 6.9 mph - N/A   Overcast
10:33 AM 66.2 °F 66.2 °F 100% 30.04 in 1.2 mi WSW 6.9 mph - N/A   Overcast
10:35 AM 66.2 °F 66.2 °F 100% 30.03 in 1.0 mi WSW 5.8 mph - N/A   Mist
10:55 AM 65.7 °F 65.7 °F 100% 30.02 in 2.0 mi SW 8.1 mph - N/A   Overcast
11:32 AM 68.0 °F 68.0 °F 100% 30.01 in 3.0 mi SSW 11.5 mph - N/A   Overcast
11:55 AM 68.9 °F 68.2 °F 98% 29.99 in 9.0 mi SSW 9.2 mph - N/A   Mostly Cloudy
12:10 PM 69.8 °F 69.8 °F 100% 29.99 in 2.5 mi SSW 10.4 mph - N/A   Overcast
12:21 PM 69.8 °F 68.0 °F 94% 29.98 in 3.0 mi SSW 9.2 mph - N/A   Overcast
12:34 PM 69.8 °F 68.0 °F 94% 29.98 in 10.0 mi SSW 8.1 mph - N/A   Scattered Clouds
12:55 PM 71.8 °F 68.2 °F 88% 29.96 in 10.0 mi SSW 11.5 mph - N/A   Partly Cloudy
1:11 PM 69.8 °F 68.0 °F 94% 29.96 in 10.0 mi SSW 10.4 mph - N/A   Partly Cloudy
1:36 PM 69.8 °F 68.0 °F 94% 29.96 in 3.0 mi SSW 11.5 mph - N/A   Mostly Cloudy
1:47 PM 69.8 °F 68.0 °F 94% 29.96 in 3.0 mi SW 11.5 mph - N/A   Scattered Clouds
1:55 PM 70.5 °F 68.9 °F 95% 29.96 in 2.0 mi SSW 11.5 mph - N/A   Mostly Cloudy
2:01 PM 69.8 °F 68.0 °F 94% 29.96 in 0.2 mi SSW 12.7 mph - N/A Fog Fog
2:12 PM 68.0 °F 68.0 °F 100% 29.96 in 0.5 mi SSW 11.5 mph - N/A Fog Fog
2:15 PM 69.8 °F 69.8 °F 100% 29.96 in 0.2 mi SSW 12.7 mph - N/A Fog Fog
2:29 PM 68.0 °F 68.0 °F 100% 29.96 in 0.5 mi SSW 9.2 mph - N/A Fog Fog
2:32 PM 68.0 °F 68.0 °F 100% 29.96 in 0.2 mi SSW 8.1 mph - N/A Fog Fog
2:49 PM 68.0 °F 68.0 °F 100% 29.95 in 1.0 mi SSW 10.4 mph - N/A   Overcast
2:55 PM 68.4 °F 68.4 °F 100% 29.95 in 1.5 mi SSW 9.2 mph - N/A   Overcast
3:31 PM 68.0 °F 68.0 °F 100% 29.95 in 4.0 mi SSW 12.7 mph - N/A   Mostly Cloudy
3:55 PM 68.9 °F 68.5 °F 99% 29.95 in 10.0 mi SSW 10.4 mph - N/A   Partly Cloudy
4:55 PM 66.0 °F 66.0 °F 100% 29.96 in 10.0 mi SW 9.2 mph - N/A   Clear
5:55 PM 66.0 °F 66.0 °F 100% 29.97 in 10.0 mi SW 11.5 mph - N/A   Partly Cloudy
6:55 PM 65.5 °F 65.5 °F 100% 29.98 in 9.0 mi SW 9.2 mph - N/A   Partly Cloudy
6:58 PM 64.4 °F 64.4 °F 100% 29.98 in 9.0 mi SW 10.4 mph - N/A   Clear
7:32 PM 64.4 °F 64.4 °F 100% 29.99 in 6.0 mi SSW 9.2 mph - N/A   Clear
7:55 PM 63.7 °F 63.7 °F 100% 30.00 in 5.0 mi SSW 9.2 mph - N/A   Clear
7:59 PM 64.4 °F 64.4 °F 100% 30.00 in 4.0 mi SSW 9.2 mph - N/A   Partly Cloudy
8:00 PM 64.4 °F 64.4 °F 100% 30.00 in 4.0 mi SSW 9.2 mph - N/A   Partly Cloudy
8:08 PM 64.4 °F 64.4 °F 100% 30.00 in 3.0 mi SW 9.2 mph - N/A   Mostly Cloudy
8:09 PM 64.4 °F 64.4 °F 100% 30.00 in 3.0 mi SW 9.2 mph - N/A   Mostly Cloudy
8:11 PM 64.4 °F 64.4 °F 100% 30.00 in 2.5 mi SW 8.1 mph - N/A   Mostly Cloudy
8:14 PM 64.4 °F 64.4 °F 100% 30.00 in 2.0 mi SW 10.4 mph - N/A   Mostly Cloudy
8:16 PM 64.4 °F 64.4 °F 100% 30.00 in 2.0 mi SW 9.2 mph - N/A   Mostly Cloudy
8:18 PM 64.4 °F 64.4 °F 100% 29.99 in 1.8 mi SW 8.1 mph - N/A   Mostly Cloudy
8:21 PM 64.4 °F 64.4 °F 100% 29.99 in 1.5 mi SW 8.1 mph - N/A   Mostly Cloudy
8:27 PM 64.4 °F 64.4 °F 100% 29.99 in 1.2 mi SW 9.2 mph - N/A   Overcast
8:34 PM 64.4 °F 64.4 °F 100% 29.99 in 1.0 mi SW 9.2 mph - N/A   Mist
8:37 PM 64.4 °F 64.4 °F 100% 29.99 in 0.8 mi SW 10.4 mph - N/A   Mist
8:39 PM 64.4 °F 64.4 °F 100% 29.99 in 0.8 mi SW 10.4 mph - N/A   Mist
8:40 PM 64.4 °F 64.4 °F 100% 29.99 in 0.5 mi SW 10.4 mph - N/A Fog Fog
8:43 PM 64.4 °F 64.4 °F 100% 29.99 in 0.5 mi SW 10.4 mph - N/A Fog Fog
8:55 PM 64.0 °F 64.0 °F 100% 30.00 in 0.5 mi SW 10.4 mph - N/A Fog Fog
9:55 PM 63.3 °F 63.3 °F 100% 29.99 in 0.5 mi SW 8.1 mph - N/A Fog Fog
10:55 PM 64.2 °F 64.2 °F 100% 29.99 in 0.5 mi SW 3.5 mph - N/A Fog Fog
11:12 PM 64.4 °F 64.4 °F 100% 29.98 in 0.2 mi Calm Calm - N/A Fog Fog
11:42 PM 64.4 °F 64.4 °F 100% 29.99 in 0.5 mi SW 3.5 mph - N/A Fog Fog
11:55 PM 63.5 °F 63.5 °F 100% 29.99 in 0.5 mi SSW 3.5 mph - N/A Fog Fog